• Join FlightAware (Why Join?)
  • Login
  • US Flag 
07:43PM EST


 

Airport Tracker/Info


-or-


 

Live Flight TrackerFlight Track Log ✈ VOZ722 ✈ 12-May-2013 ✈ YPPH / PER - YPAD / ADL

Flight Track Log - Related Links

Times and Time Zones

All times are in EDT time to prevent confusion due to time zone crossing. See the VOZ722 flight status page for this flight to view local times or setup timezone preferences in your user account.

Time Position Orientation Groundspeed Altitude Reporting Facility
EDT Latitude Longitude Course Direction KTS MPH feet Rate Location/Type
05:58AM -31.9866 115.9495 17° North 3,800  Level Aus ATC (Calculated)
05:58AM -31.9600 115.9590 190° South 166 191 300 -5,520 Descending FlightAware
05:58AM -31.9752 115.9539 190° South 170 196 1,600 2,640 Climbing Aus ATC (RADAR)
05:59AM -32.0067 115.9459 192° South 201 231 2,600 780 Climbing Aus ATC (RADAR)
05:59AM -32.0040 115.9460 192° South 209 241 2,100 1,020 Descending FlightAware
05:59AM -32.0270 115.9560 160° South 235 270 3,000 2,880 Climbing FlightAware
06:00AM -32.0370 115.9730 125° Southeast 242 278 3,800 3,540 Climbing FlightAware
06:00AM -32.0498 116.0233 125° Southeast 241 277 6,100 2,820 Climbing Aus ATC (RADAR)
06:00AM -32.0500 116.0260 125° Southeast 268 308 5,700 1,920 Descending FlightAware
06:01AM -32.0570 116.0590 104° East 271 312 7,000 3,780 Climbing FlightAware
06:01AM -32.0757 116.1147 104° East 259 298 9,700 2,820 Climbing Aus ATC (RADAR)
06:02AM -32.0930 116.1580 116° Southeast 303 349 10,300 1,860 Climbing FlightAware
06:02AM -32.0962 116.1644 116° Southeast 279 321 10,800 2,760 Climbing Aus ATC (RADAR)
06:03AM -32.1260 116.2380 116° Southeast 326 375 12,600 3,000 Climbing FlightAware
06:03AM -32.1475 116.2919 116° Southeast 310 357 14,800 3,000 Climbing Aus ATC (RADAR)
06:03AM -32.1520 116.3010 116° Southeast 337 388 14,600 2,880 Descending FlightAware
06:04AM -32.1716 116.3507 116° Southeast 325 374 16,500 3,000 Climbing Aus ATC (RADAR)
06:04AM -32.1790 116.3700 116° Southeast 353 406 16,600 2,400 Climbing FlightAware
06:04AM -32.1987 116.4220 116° Southeast 344 396 18,100 2,400 Climbing Aus ATC (RADAR)
06:05AM -32.2030 116.4460 116° Southeast 376 433 18,200 2,880 Climbing FlightAware
06:05AM -32.2131 116.4928 116° Southeast 361 415 19,800 2,880 Climbing Aus ATC (RADAR)
06:05AM -32.2180 116.5160 116° Southeast 383 441 19,900 2,880 Climbing FlightAware
06:06AM -32.2282 116.5643 116° Southeast 365 420 21,500 3,420 Climbing Aus ATC (RADAR)
06:06AM -32.2416 116.6260 104° East 369 425 22,900 1,920 Climbing Aus ATC (RADAR)
06:07AM -32.2530 116.6820 104° East 399 459 23,400 1,800 Climbing FlightAware
06:07AM -32.2710 116.7660 104° East 408 470 25,000 2,820 Climbing FlightAware
06:08AM -32.2803 116.8068 104° East 390 449 26,100 1,980 Climbing Aus ATC (RADAR)
06:08AM -32.2920 116.8650 104° East 417 480 26,500 1,380 Climbing FlightAware
06:09AM -32.3090 116.9430 104° East 425 489 27,600 2,280 Climbing FlightAware
06:09AM -32.3273 117.0301 104° East 409 471 29,200 1,680 Climbing Aus ATC (RADAR)
06:09AM -32.3330 117.0570 104° East 436 502 29,000 1,320 Descending FlightAware
06:10AM -32.3444 117.1119 104° East 420 483 30,000 1,560 Climbing Aus ATC (RADAR)
06:10AM -32.3570 117.1740 104° East 448 516 30,300 1,020 Climbing FlightAware
06:11AM -32.3770 117.2710 104° East 458 527 31,200 1,680 Climbing FlightAware
06:11AM -32.3942 117.3535 104° East 447 514 32,300 1,680 Climbing Aus ATC (RADAR)
06:12AM -32.4122 117.4406 104° East 454 522 33,100 600 Climbing Aus ATC (RADAR)
06:12AM -32.4120 117.4420 104° East 471 542 32,700 960 Descending FlightAware
06:13AM -32.4340 117.5450 104° East 467 537 33,900 1,680 Climbing FlightAware
06:13AM -32.4500 117.6270 104° East 466 536 34,800 2,880 Climbing FlightAware
06:13AM -32.4531 117.6396 104° East 449 517 35,400 1,980 Climbing Aus ATC (RADAR)
06:14AM -32.4717 117.7263 104° East 453 521 36,000 480 Climbing Aus ATC (RADAR)
06:14AM -32.4800 117.7710 104° East 471 542 35,900 1,200 Descending FlightAware
06:15AM -32.4916 117.8272 104° East 458 527 36,800 1,200 Climbing Aus ATC (RADAR)
06:15AM -32.4980 117.8610 104° East 475 547 36,600 1,200 Descending FlightAware
06:15AM -32.5099 117.9155 104° East 461 531 37,500 1,200 Climbing Aus ATC (RADAR)
06:15AM -32.5140 117.9380 104° East 472 543 37,200 1,200 Descending FlightAware
06:16AM -32.5270 118.0035 104° East 458 527 38,200 1,200 Climbing Aus ATC (RADAR)
06:16AM -32.5350 118.0420 104° East 474 545 38,000 240 Descending FlightAware
06:17AM -32.5490 118.1120 103° East 474 545 38,400 1,680 Climbing FlightAware
06:17AM -32.5609 118.1674 103° East 460 529 39,300 900 Climbing Aus ATC (RADAR)
06:17AM -32.5710 118.2220 103° East 473 544 39,000 180 Descending FlightAware
06:18AM -32.5885 118.3059 103° East 463 533 39,500 540 Climbing Aus ATC (RADAR)
06:18AM -32.5981 118.3565 103° East 463 533 39,500  Level Aus ATC (RADAR)
06:19AM -32.6104 118.4200 103° East 464 534 39,500 -660 Level Aus ATC (RADAR)
06:19AM -32.6210 118.4730 103° East 471 542 39,000 -420 Descending FlightAware
06:20AM -32.6440 118.5910 103° East 471 542 39,000 300 Level FlightAware
06:20AM -32.6644 118.6967 103° East 462 532 39,500  Climbing Aus ATC (RADAR)
06:21AM -32.6710 118.7290 103° East 471 542 39,000 -600 Descending FlightAware
06:21AM -32.6870 118.8140 103° East 471 542 39,000 660 Level FlightAware
06:21AM -32.6975 118.8601 103° East 462 532 39,500 600 Climbing Aus ATC (RADAR)
06:22AM -32.7121 118.9495 101° East 464 534 39,500  Level Aus ATC (RADAR)
06:23AM -32.7430 119.1001 104° East 461 531 39,500 -420 Level Aus ATC (RADAR)
06:23AM -32.7470 119.1210 104° East 470 541 39,000  Descending FlightAware
06:24AM -32.7636 119.2135 104° East 459 528 39,500  Climbing Aus ATC (RADAR)
06:24AM -32.7640 119.2140 104° East 468 539 39,000  Descending FlightAware
06:24AM -32.7798 119.3013 104° East 457 526 39,500  Climbing Aus ATC (RADAR)
06:25AM -32.7860 119.3300 104° East 467 537 39,000  Descending FlightAware
06:25AM -32.8008 119.4143 104° East 459 528 39,500 420 Climbing Aus ATC (RADAR)
06:26AM -32.8162 119.5023 102° East 459 528 39,500  Level Aus ATC (RADAR)
06:26AM -32.8298 119.5772 102° East 458 527 39,500 -600 Level Aus ATC (RADAR)
06:27AM -32.8380 119.6020 102° East 466 536 39,000  Descending FlightAware
06:27AM -32.8468 119.6639 102° East 455 524 39,500 660 Climbing Aus ATC (RADAR)
06:27AM -32.8612 119.7383 103° East 454 522 39,500 -1,020 Level Aus ATC (RADAR)
06:27AM -32.8560 119.7050 103° East 466 536 39,000 -600 Descending FlightAware
06:28AM -32.8750 119.8110 102° East 466 536 39,000 360 Level FlightAware
06:29AM -32.8997 119.9359 102° East 452 520 39,500  Climbing Aus ATC (RADAR)
06:29AM -32.8980 119.9390 102° East 466 536 39,000  Descending FlightAware
06:30AM -32.9329 120.1065 102° East 449 517 39,500  Climbing Aus ATC (RADAR)
06:30AM -32.9170 120.0460 102° East 466 536 39,000 -540 Descending FlightAware
06:31AM -32.9360 120.1530 102° East 466 536 39,000  Level FlightAware
06:31AM -32.9510 120.2380 102° East 466 536 39,000  Level FlightAware
06:32AM -32.9740 120.3670 102° East 466 536 39,000  Level FlightAware
06:33AM -33.0142 120.6210 280° West 39,000  Level Aus ATC (Calculated)
06:33AM -32.9890 120.4520 102° East 466 536 39,000  Level FlightAware
06:34AM -33.0120 120.5800 102° East 466 536 39,000  Level FlightAware
06:35AM -33.0310 120.6870 102° East 466 536 39,000  Level FlightAware
06:36AM -33.0500 120.7940 102° East 466 536 39,000  Level FlightAware
06:36AM -33.0650 120.8800 102° East 466 536 39,000  Level FlightAware
06:38AM -33.1307 121.3843 102° East 39,000  Level Aus ATC (Calculated)
06:40AM -33.1666 121.6268 100° East  Level FlightAware Approximate
06:41AM -33.1882 121.7738 100° East  Level FlightAware Approximate
06:42AM -33.2095 121.9209 100° East  Level FlightAware Approximate
06:42AM -33.2326 122.0395 102° East 39,000  Level Aus ATC (Calculated)
06:43AM -33.2071 121.8933 282° West  Level FlightAware Approximate
06:44AM -33.1814 121.7472 282° West  Level FlightAware Approximate
06:45AM -33.2010 121.8587 102° East  Level FlightAware Approximate
06:46AM -33.2266 122.0048 102° East  Level FlightAware Approximate
06:46AM -33.3337 122.6290 101° East 39,000  Level Aus ATC (Calculated)
06:48AM -33.3747 122.8734 101° East  Level FlightAware Approximate
06:49AM -33.3991 123.0201 101° East  Level FlightAware Approximate
06:50AM -33.4233 123.1669 101° East  Level FlightAware Approximate
06:50AM -33.4481 123.3184 101° East 39,000  Level Aus ATC (Calculated)
06:51AM -33.4642 123.4170 101° East 39,000  Level Aus ATC (Calculated)
06:53AM -33.5060 123.6768 101° East  Level FlightAware Approximate
06:54AM -33.5294 123.8240 101° East  Level FlightAware Approximate
06:55AM -33.5527 123.9713 101° East  Level FlightAware Approximate
06:56AM -33.5758 124.1186 101° East  Level FlightAware Approximate
06:56AM -33.5742 124.1085 101° East 39,000  Level Aus ATC (Calculated)
06:58AM -33.6146 124.3690 101° East  Level FlightAware Approximate
06:59AM -33.6372 124.5165 100° East  Level FlightAware Approximate
07:00AM -33.6596 124.6641 100° East  Level FlightAware Approximate
07:01AM -33.6819 124.8118 100° East  Level FlightAware Approximate
07:01AM -33.6952 124.9008 100° East 39,000  Level Aus ATC (Calculated)
07:03AM -33.7343 125.1645 100° East  Level FlightAware Approximate
07:03AM -33.7375 125.1867 100° East 39,000  Level Aus ATC (Calculated)
07:05AM -33.6949 124.8983 280° West  Level FlightAware Approximate
07:05AM -33.7783 125.4669 100° East 39,000  Level Aus ATC (Calculated)
07:07AM -33.7381 125.1906 280° West  Level FlightAware Approximate
07:07AM -33.8449 125.9344 100° East 39,000  Level Aus ATC (Calculated)
07:08AM -33.7163 125.0427 280° West  Level FlightAware Approximate
07:09AM -33.8663 126.0877 100° East  Level Estimated
07:10AM -33.8868 126.2361 100° East  Level FlightAware Approximate
07:11AM -33.9072 126.3846 99° East  Level FlightAware Approximate
07:12AM -33.9274 126.5332 99° East  Level FlightAware Approximate
07:12AM -33.9477 126.6840 99° East 39,000  Level Aus ATC (Calculated)
07:13AM -33.9474 126.6818 99° East  Level FlightAware Approximate
07:14AM -33.9686 126.8401 99° East  Level FlightAware Approximate
07:15AM -33.9882 126.9889 99° East  Level FlightAware Approximate
07:16AM -34.0076 127.1378 99° East  Level FlightAware Approximate
07:17AM -34.0269 127.2867 99° East  Level FlightAware Approximate
07:17AM -34.0460 127.4354 99° East 39,000  Level Aus ATC (Calculated)
07:18AM -34.0460 127.4356 99° East  Level FlightAware Approximate
07:19AM -34.0660 127.5929 99° East  Level FlightAware Approximate
07:20AM -34.0849 127.7430 99° East  Level FlightAware Approximate
07:21AM -34.1035 127.8932 99° East  Level FlightAware Approximate
07:22AM -34.1220 128.0434 98° East  Level FlightAware Approximate
07:22AM -34.1167 128.0000 98° East 39,000  Level Aus ATC (Calculated)
07:23AM -34.1433 128.2178 98° East 39,000  Level Aus ATC (Calculated)
07:25AM -34.1136 127.9749 278° West  Level FlightAware Approximate
07:26AM -34.1320 128.1251 98° East  Level FlightAware Approximate
07:26AM -34.2079 128.7629 98° East 39,000  Level Aus ATC (Calculated)
07:27AM -34.1136 127.9749 278° West  Level FlightAware Approximate
07:28AM -34.1892 128.6023 278° West  Level FlightAware Approximate
07:29AM -34.1713 128.4519 278° West  Level FlightAware Approximate
07:30AM -34.1891 128.6023 98° East  Level Estimated
07:31AM -34.2068 128.7529 98° East  Level FlightAware Approximate
07:31AM -34.2945 129.5274 98° East 39,000  Level Aus ATC (Calculated)
07:32AM -34.2242 128.9034 98° East  Level FlightAware Approximate
07:33AM -34.3124 129.6920 98° East  Level FlightAware Approximate
07:34AM -34.3288 129.8439 97° East  Level FlightAware Approximate
07:34AM -34.3301 129.8555 97° East 39,000  Level Aus ATC (Calculated)
07:35AM -34.3450 129.9960 97° East  Level FlightAware Approximate
07:35AM -34.3533 130.0744 97° East 39,000  Level Aus ATC (Calculated)
07:36AM -34.3762 130.2934 97° East 39,000 60 Level Aus ATC (Calculated)
07:37AM -34.3798 130.3279 97° East  Level FlightAware Approximate
07:38AM -34.3932 130.4583 97° East  Level FlightAware Approximate
07:39AM -34.4086 130.6105 97° East  Level FlightAware Approximate
07:40AM -34.4239 130.7629 97° East  Level FlightAware Approximate
07:41AM -34.4389 130.9152 97° East  Level FlightAware Approximate
07:41AM -34.4532 131.0608 97° East 39,000  Level Aus ATC (Calculated)
07:42AM -34.4538 131.0677 97° East  Level FlightAware Approximate
07:43AM -34.4693 131.2286 97° East  Level FlightAware Approximate
07:43AM -34.4743 131.2804 97° East 39,000  Level Aus ATC (Calculated)
07:43AM -34.4743 131.2804 97° East 39,000 120 Level Aus ATC (Calculated)
07:44AM -34.4847 131.3902 97° East 39,000 120 Level Aus ATC (Calculated)
07:46AM -34.5063 131.6216 97° East  Level FlightAware Approximate
07:47AM -34.4921 131.4690 276° West  Level FlightAware Approximate
07:48AM -34.5063 131.6216 96° East  Level FlightAware Approximate
07:49AM -34.4921 131.4690 276° West  Level FlightAware Approximate
07:49AM -34.5641 132.2636 96° East 39,000  Level Aus ATC (Calculated)
07:50AM -34.5063 131.6216 96° East  Level FlightAware Approximate
07:51AM -34.5436 132.0318 276° West  Level FlightAware Approximate
07:51AM -34.6014 132.7005 96° East 39,000  Level Aus ATC (Calculated)
07:52AM -34.5299 131.8791 276° West  Level FlightAware Approximate
07:53AM -34.5881 132.5424 276° West  Level FlightAware Approximate
07:54AM -34.6009 132.6954 96° East  Level Estimated
07:55AM -34.6136 132.8484 96° East  Level FlightAware Approximate
07:55AM -34.6692 133.5480 96° East 498 573 41,000  Level Aus ATC (RADAR)
07:56AM -34.6760 133.6450 95° East 497 572 41,000  Level Aus ATC (RADAR)
07:56AM -34.6840 133.7554 95° East 496 571 41,000  Level Aus ATC (RADAR)
07:57AM -34.6876 133.8389 93° East 498 573 41,000  Level Aus ATC (RADAR)
07:58AM -34.6983 133.9500 97° East 500 575 41,000 60 Level Aus ATC (RADAR)
07:58AM -34.7031 134.0195 95° East 498 573 41,100 60 Climbing Aus ATC (RADAR)
07:59AM -34.7085 134.1172 94° East 499 574 41,100  Level Aus ATC (RADAR)
07:59AM -34.7181 134.2288 96° East 501 577 41,100  Level Aus ATC (RADAR)
08:00AM -34.7230 134.2988 95° East 501 577 41,100  Level Aus ATC (RADAR)
08:00AM -34.7298 134.3963 95° East 501 577 41,100  Level Aus ATC (RADAR)
08:01AM -34.7375 134.4938 96° East 500 575 41,100  Level Aus ATC (RADAR)
08:01AM -34.7446 134.5914 95° East 499 574 41,100  Level Aus ATC (RADAR)
08:02AM -34.7474 134.6895 92° East 499 574 41,100  Level Aus ATC (RADAR)
08:03AM -34.7563 134.8002 96° East 496 571 41,100  Level Aus ATC (RADAR)
08:03AM -34.7619 134.8552 97° East 496 571 41,100  Level Aus ATC (RADAR)
08:04AM -34.7675 134.9524 94° East 497 572 41,100  Level Aus ATC (RADAR)
08:04AM -34.7746 135.0770 94° East 496 571 41,100  Level Aus ATC (RADAR)
08:05AM -34.7815 135.1736 95° East 494 568 41,100  Level Aus ATC (RADAR)
08:05AM -34.7870 135.2562 95° East 494 568 41,100  Level Aus ATC (RADAR)
08:06AM -34.7927 135.3525 94° East 491 565 41,100  Level Aus ATC (RADAR)
08:07AM -34.7991 135.4624 94° East 492 566 41,100  Level Aus ATC (RADAR)
08:07AM -34.8047 135.5452 95° East 493 567 41,100  Level Aus ATC (RADAR)
08:08AM -34.8106 135.6554 94° East 494 568 41,100  Level Aus ATC (RADAR)
08:08AM -34.8173 135.7514 95° East 492 566 41,100  Level Aus ATC (RADAR)
08:09AM -34.8218 135.8345 94° East 494 568 41,100 -120 Level Aus ATC (RADAR)
08:09AM -34.8260 135.8910 94° East 494 568 41,000  Descending FlightAware
08:10AM -34.8302 135.9724 94° East 494 568 41,100  Climbing Aus ATC (RADAR)
08:10AM -34.8310 135.9930 93° East 494 568 41,000  Descending FlightAware
08:10AM -34.8294 136.0551 93° East 491 565 41,100 60 Climbing Aus ATC (RADAR)
08:11AM -34.8239 136.1518 86° East 493 567 41,100 -120 Level Aus ATC (RADAR)
08:11AM -34.8220 136.1890 86° East 494 568 41,000 -1,380 Descending FlightAware
08:12AM -34.8173 136.2623 86° East 494 568 40,200 -3,360 Descending Aus ATC (RADAR)
08:12AM -34.8140 136.3270 86° East 516 594 38,500 -3,600 Descending FlightAware
08:12AM -34.8122 136.3484 86° East 509 586 38,400 -1,860 Descending Aus ATC (RADAR)
08:13AM -34.8079 136.4480 86° East 507 583 37,300 -1,920 Descending Aus ATC (RADAR)
08:13AM -34.8070 136.4540 86° East 504 580 37,100 -2,580 Descending FlightAware
08:13AM -34.8030 136.5160 86° East 502 578 36,200 -2,940 Descending FlightAware
08:14AM -34.7952 136.6451 86° East 504 580 34,000 -2,880 Descending Aus ATC (RADAR)
08:14AM -34.7950 136.6520 86° East 507 583 33,800 -3,180 Descending FlightAware
08:14AM -34.7883 136.7589 86° East 507 583 31,900 -3,120 Descending Aus ATC (RADAR)
08:15AM -34.7837 136.8451 86° East 511 588 30,500 -2,340 Descending Aus ATC (RADAR)
08:15AM -34.7793 136.9298 86° East 504 580 29,600 -2,040 Descending Aus ATC (RADAR)
08:16AM -34.7741 137.0259 86° East 489 563 28,300 -2,340 Descending Aus ATC (RADAR)
08:17AM -34.7673 137.1346 86° East 485 558 26,700 -2,400 Descending Aus ATC (RADAR)
08:17AM -34.7660 137.1550 86° East 481 554 26,300 -2,040 Descending FlightAware
08:17AM -34.7622 137.2147 86° East 477 549 25,700 -2,040 Descending Aus ATC (RADAR)
08:17AM -34.7610 137.2350 86° East 471 542 25,300 -1,680 Descending FlightAware
08:18AM -34.7557 137.3186 86° East 462 532 24,600 -1,500 Descending Aus ATC (RADAR)
08:18AM -34.7550 137.3400 86° East 452 520 24,300 -1,560 Descending FlightAware
08:18AM -34.7496 137.4064 86° East 449 517 23,700 -1,740 Descending Aus ATC (RADAR)
08:19AM -34.7490 137.4250 86° East 440 506 23,300 -2,220 Descending FlightAware
08:19AM -34.7450 137.4800 86° East 440 506 22,600 -2,280 Descending Aus ATC (RADAR)
08:19AM -34.7430 137.5230 86° East 435 501 21,800 -2,100 Descending FlightAware
08:20AM -34.7379 137.5888 86° East 430 495 21,100 -1,920 Descending Aus ATC (RADAR)
08:20AM -34.7370 137.6090 86° East 426 490 20,700 -1,740 Descending FlightAware
08:20AM -34.7389 137.6720 86° East 425 489 20,100 -1,800 Descending Aus ATC (RADAR)
08:20AM -34.7420 137.6790 86° East 420 483 19,800 -2,280 Descending FlightAware
08:21AM -34.7584 137.7508 86° East 417 480 18,800 -2,100 Descending Aus ATC (RADAR)
08:21AM -34.7610 137.7590 86° East 413 475 18,600 -2,280 Descending FlightAware
08:21AM -34.7750 137.8296 86° East 412 474 17,500 -2,340 Descending Aus ATC (RADAR)
08:22AM -34.7740 137.9108 89° East 409 471 16,200 -2,340 Descending Aus ATC (RADAR)
08:22AM -34.7730 137.9200 89° East 408 470 15,900 -2,160 Descending FlightAware
08:23AM -34.7690 137.9900 86° East 403 464 14,900 -1,980 Descending FlightAware
08:23AM -34.7650 138.0576 86° East 400 460 14,000 -2,040 Descending Aus ATC (RADAR)
08:23AM -34.7650 138.0560 86° East 397 457 13,900 -2,100 Descending FlightAware
08:24AM -34.7605 138.1347 86° East 393 452 12,800 -1,980 Descending Aus ATC (RADAR)
08:24AM -34.7580 138.1770 86° East 385 443 12,100 -1,980 Descending FlightAware
08:25AM -34.7550 138.2390 87° East 377 434 11,100 -2,040 Descending FlightAware
08:25AM -34.7510 138.3130 86° East 356 410 9,900 -2,040 Descending FlightAware
08:25AM -34.7490 138.3440 86° East 351 404 9,400 -2,040 Descending FlightAware
08:26AM -34.7470 138.3700 85° East 350 403 8,900 -2,040 Descending FlightAware
08:26AM -34.7430 138.4410 86° East 346 398 7,700 -1,980 Descending FlightAware
08:27AM -34.7400 138.4790 85° East 343 395 7,100 -1,920 Descending FlightAware
08:27AM -34.7370 138.5280 86° East 340 391 6,300 -1,200 Descending FlightAware
08:27AM -34.7340 138.5830 86° East 314 361 6,000 -840 Descending FlightAware
08:28AM -34.7320 138.6080 84° East 306 352 5,700 -1,200 Descending FlightAware
08:28AM -34.7300 138.6410 86° East 303 349 5,300 -1,320 Descending FlightAware
08:29AM -34.7380 138.7070 98° East 282 325 4,400 -1,020 Descending FlightAware
08:29AM -34.7630 138.7330 139° Southeast 260 299 4,200 -480 Descending FlightAware
08:29AM -34.7770 138.7430 150° Southeast 241 277 4,100 -480 Descending FlightAware
08:30AM -34.7880 138.7450 172° South 225 259 4,000 -600 Descending FlightAware
08:30AM -34.8070 138.7340 205° Southwest 204 235 3,800 -480 Descending FlightAware
08:30AM -34.8190 138.7200 224° Southwest 178 205 3,700 -720 Descending FlightAware
08:31AM -34.8350 138.6970 224° Southwest 176 203 3,200 -960 Descending FlightAware
08:31AM -34.8376 138.6927 224° Southwest 180 207 3,200 -900 Level Aus ATC (RADAR)
08:31AM -34.8460 138.6810 230° Southwest 165 190 2,900 -960 Descending FlightAware
08:32AM -34.8630 138.6570 229° Southwest 155 178 2,400 -840 Descending FlightAware
08:32AM -34.8837 138.6262 229° Southwest 138 159 1,800 -900 Descending Aus ATC (RADAR)
08:33AM -34.8860 138.6230 229° Southwest 131 151 1,600 -900 Descending FlightAware
08:33AM -34.8930 138.6120 232° Southwest 129 148 1,400 -720 Descending FlightAware
08:33AM -34.9030 138.5980 229° Southwest 127 146 1,100 -780 Descending FlightAware
08:34AM -34.9090 138.5890 231° Southwest 127 146 900 -780 Descending FlightAware
08:34AM -34.9190 138.5750 229° Southwest 128 147 600 -720 Descending FlightAware
08:34AM -34.9220 138.5700 234° Southwest 127 146 500 -540 Descending FlightAware
08:35AM -34.9377 138.5476 234° Southwest 129 148 200 -540 Descending Aus ATC (RADAR)
08:35AM -34.9450 138.5360 234° Southwest 124 143 -540 Descending FlightAware